createdAt,value
2023-01-29T00:02:14.866Z,25.93
2023-01-29T00:04:44.041Z,24.60
2023-01-29T00:07:10.951Z,24.93
2023-01-29T00:09:37.920Z,24.90
2023-01-29T00:12:05.119Z,24.47
2023-01-29T00:14:32.015Z,24.67
2023-01-29T00:16:58.888Z,25.27
2023-01-29T00:19:25.911Z,24.80
2023-01-29T00:21:53.039Z,26.53
2023-01-29T00:24:20.243Z,26.83
2023-01-29T00:26:50.378Z,28.30
2023-01-29T00:29:18.014Z,26.97
2023-01-29T00:31:45.545Z,26.37
2023-01-29T00:34:12.632Z,27.63
2023-01-29T00:36:44.337Z,26.57
2023-01-29T00:39:12.570Z,25.87
2023-01-29T00:41:58.157Z,27.97
2023-01-29T00:44:43.850Z,26.10
2023-01-29T00:47:29.393Z,26.13
2023-01-29T00:49:57.031Z,26.17
2023-01-29T00:52:24.431Z,27.13
2023-01-29T00:55:00.955Z,25.37
2023-01-29T00:57:30.046Z,27.55
2023-01-29T00:59:57.549Z,28.73
2023-01-29T01:02:44.264Z,27.43
2023-01-29T01:05:18.419Z,27.67
2023-01-29T01:07:51.467Z,27.60
2023-01-29T01:10:24.520Z,27.40
2023-01-29T01:12:54.031Z,27.60
2023-01-29T01:15:21.976Z,29.03
2023-01-29T01:17:52.820Z,28.73
2023-01-29T01:20:20.279Z,27.33
2023-01-29T01:22:47.287Z,28.53
2023-01-29T01:25:16.075Z,27.67
2023-01-29T01:27:42.883Z,27.60
2023-01-29T01:30:13.629Z,26.63
2023-01-29T01:32:43.892Z,29.90
2023-01-29T01:35:12.146Z,29.23
2023-01-29T01:37:39.352Z,29.63
2023-01-29T01:40:13.272Z,26.93
2023-01-29T01:42:42.822Z,25.15
2023-01-29T01:47:52.983Z,28.97
2023-01-29T01:50:26.937Z,27.57
2023-01-29T01:53:00.474Z,27.67
2023-01-29T01:55:31.135Z,29.93
2023-01-29T01:58:04.667Z,29.77
2023-01-29T02:00:32.718Z,31.67
2023-01-29T02:03:20.139Z,27.33
2023-01-29T02:06:08.013Z,29.27
2023-01-29T02:09:06.272Z,31.25
2023-01-29T02:11:36.573Z,30.07
2023-01-29T02:14:03.666Z,29.03
2023-01-29T02:16:31.920Z,28.90
2023-01-29T02:18:59.374Z,26.93
2023-01-29T02:22:01.911Z,27.03
2023-01-29T02:24:59.086Z,24.10
2023-01-29T02:27:49.242Z,27.53
2023-01-29T02:30:26.906Z,30.33
2023-01-29T02:32:59.279Z,28.80
2023-01-29T02:36:03.714Z,29.20
2023-01-29T02:38:41.179Z,28.30
2023-01-29T02:41:46.452Z,30.43
2023-01-29T02:44:19.514Z,30.33
2023-01-29T02:46:58.748Z,31.23
2023-01-29T02:49:38.518Z,32.47
2023-01-29T02:52:13.618Z,31.87
2023-01-29T02:54:44.381Z,31.17
2023-01-29T02:57:37.275Z,31.13
2023-01-29T03:00:18.850Z,28.93
2023-01-29T03:02:58.627Z,29.83
2023-01-29T03:05:33.777Z,29.23
2023-01-29T03:08:10.377Z,29.37
2023-01-29T03:10:42.257Z,30.33
2023-01-29T03:13:16.609Z,29.43
2023-01-29T03:15:51.375Z,31.97
2023-01-29T03:18:43.712Z,33.97
2023-01-29T03:21:36.981Z,34.67
2023-01-29T03:24:24.513Z,33.13
2023-01-29T03:27:11.892Z,32.47
2023-01-29T03:30:03.815Z,32.40
2023-01-29T03:32:49.740Z,30.97
2023-01-29T03:35:35.779Z,31.00
2023-01-29T03:38:10.361Z,32.90
2023-01-29T03:40:49.332Z,30.07
2023-01-29T03:43:30.125Z,31.60
2023-01-29T03:46:22.505Z,33.97
2023-01-29T03:48:55.398Z,34.73
2023-01-29T03:51:34.583Z,33.93
2023-01-29T03:54:01.561Z,33.13
2023-01-29T03:56:47.115Z,30.67
2023-01-29T03:59:23.052Z,30.23
2023-01-29T04:02:19.446Z,28.63
2023-01-29T04:04:52.066Z,29.03
2023-01-29T04:07:24.611Z,28.87
2023-01-29T04:10:13.085Z,26.03
2023-01-29T04:12:55.585Z,25.17
2023-01-29T04:15:26.137Z,22.30
2023-01-29T04:17:55.881Z,27.23
2023-01-29T04:20:38.776Z,25.17
2023-01-29T04:23:07.646Z,25.87
2023-01-29T04:25:44.948Z,25.43
2023-01-29T04:28:20.656Z,23.93
2023-01-29T04:31:08.622Z,25.30
2023-01-29T04:33:44.138Z,24.27
2023-01-29T04:36:30.373Z,25.13
2023-01-29T04:39:17.529Z,24.10
2023-01-29T04:41:55.696Z,24.52
2023-01-29T04:44:27.715Z,22.50
2023-01-29T04:47:31.807Z,26.50
2023-01-29T04:50:01.344Z,23.43
2023-01-29T04:53:06.925Z,20.63
2023-01-29T04:55:40.569Z,22.63
2023-01-29T04:58:32.151Z,23.70
2023-01-29T05:01:01.128Z,21.40
2023-01-29T05:03:30.260Z,20.17
2023-01-29T05:05:59.981Z,18.67
2023-01-29T05:08:29.537Z,17.73
2023-01-29T05:10:59.124Z,17.30
2023-01-29T05:13:27.323Z,16.40
2023-01-29T05:16:02.972Z,8.23
2023-01-29T05:18:31.174Z,8.20
2023-01-29T05:21:02.275Z,12.20
2023-01-29T05:23:29.140Z,6.37
2023-01-29T05:25:56.995Z,12.13
2023-01-29T05:28:24.149Z,13.13
2023-01-29T05:30:53.699Z,12.43
2023-01-29T05:33:25.160Z,17.60
2023-01-29T05:35:52.089Z,20.00
2023-01-29T05:38:19.948Z,23.57
2023-01-29T05:40:47.084Z,23.87
2023-01-29T05:43:19.876Z,23.40
2023-01-29T05:46:00.295Z,21.80
2023-01-29T05:48:29.190Z,23.43
2023-01-29T05:51:05.172Z,22.07
2023-01-29T05:53:32.956Z,25.27
2023-01-29T05:56:03.756Z,23.53
2023-01-29T05:58:32.216Z,25.57
2023-01-29T06:00:59.060Z,24.83
2023-01-29T06:03:26.591Z,23.80
2023-01-29T06:05:53.447Z,24.60
2023-01-29T06:08:20.527Z,24.60
2023-01-29T06:10:47.734Z,25.00
2023-01-29T06:13:14.852Z,24.03
2023-01-29T06:15:41.644Z,24.23
2023-01-29T06:18:09.025Z,23.70
2023-01-29T06:20:38.299Z,25.07
2023-01-29T06:23:05.542Z,24.80
2023-01-29T06:25:32.599Z,24.57
2023-01-29T06:27:59.763Z,24.00
2023-01-29T06:30:28.376Z,24.17
2023-01-29T06:32:59.185Z,26.07
2023-01-29T06:35:26.380Z,25.23
2023-01-29T06:37:53.307Z,25.83
2023-01-29T06:40:21.428Z,24.80
2023-01-29T06:42:48.212Z,24.13
2023-01-29T06:45:15.584Z,24.00
2023-01-29T06:47:42.577Z,23.67
2023-01-29T06:50:10.458Z,24.07
2023-01-29T06:52:37.322Z,24.57
2023-01-29T06:55:05.628Z,23.27
2023-01-29T06:57:32.522Z,23.37
2023-01-29T06:59:59.742Z,24.73
2023-01-29T07:02:26.891Z,23.73
2023-01-29T07:04:53.707Z,26.00
2023-01-29T07:07:20.642Z,26.60
2023-01-29T07:09:47.542Z,25.60
2023-01-29T07:14:41.077Z,25.13
2023-01-29T07:17:07.928Z,26.43
2023-01-29T07:19:34.743Z,26.27
2023-01-29T07:22:03.304Z,24.23
2023-01-29T07:24:30.267Z,25.17
2023-01-29T07:26:57.116Z,22.77
2023-01-29T07:29:24.074Z,23.83
2023-01-29T07:31:51.060Z,24.27
2023-01-29T07:34:20.405Z,25.03
2023-01-29T07:36:47.270Z,24.63
2023-01-29T07:39:14.304Z,24.53
2023-01-29T07:41:41.413Z,23.70
2023-01-29T07:44:16.224Z,23.10
2023-01-29T07:46:43.715Z,24.77
2023-01-29T07:49:11.123Z,24.03
2023-01-29T07:51:38.398Z,26.33
2023-01-29T07:54:07.527Z,25.73
2023-01-29T07:56:35.052Z,25.63
2023-01-29T07:59:03.747Z,24.97
2023-01-29T08:01:30.911Z,24.67
2023-01-29T08:03:57.805Z,22.83
2023-01-29T08:06:25.539Z,22.93
2023-01-29T08:08:53.154Z,22.13
2023-01-29T08:11:20.414Z,22.87
2023-01-29T08:16:14.940Z,21.60
2023-01-29T08:18:46.303Z,23.83
2023-01-29T08:21:14.153Z,22.97
2023-01-29T08:23:41.166Z,21.50
2023-01-29T08:26:08.046Z,22.53
2023-01-29T08:28:35.652Z,23.30
2023-01-29T08:31:02.604Z,22.87
2023-01-29T08:33:38.617Z,24.07
2023-01-29T08:36:07.534Z,22.83
2023-01-29T08:38:35.675Z,25.50
2023-01-29T08:41:02.589Z,24.70
2023-01-29T08:43:29.704Z,23.77
2023-01-29T08:45:59.107Z,23.07
2023-01-29T08:48:26.023Z,23.70
2023-01-29T08:50:58.025Z,21.93
2023-01-29T08:53:25.074Z,22.23
2023-01-29T08:55:52.872Z,21.03
2023-01-29T08:58:20.523Z,22.17
2023-01-29T09:00:47.490Z,23.50
2023-01-29T09:03:16.801Z,21.63
2023-01-29T09:05:43.770Z,23.80
2023-01-29T09:08:10.751Z,21.43
2023-01-29T09:10:37.629Z,24.13
2023-01-29T09:13:06.679Z,22.90
2023-01-29T09:15:33.589Z,22.17
2023-01-29T09:18:04.344Z,21.90
2023-01-29T09:20:31.264Z,21.67
2023-01-29T09:22:59.586Z,20.90
2023-01-29T09:25:26.665Z,22.03
2023-01-29T09:27:54.851Z,22.70
2023-01-29T09:30:22.519Z,20.47
2023-01-29T09:32:54.259Z,22.20
2023-01-29T09:35:24.028Z,22.40
2023-01-29T09:37:52.475Z,22.53
2023-01-29T09:40:32.065Z,23.30
2023-01-29T09:43:06.811Z,22.27
2023-01-29T09:45:35.461Z,22.60
2023-01-29T09:48:05.970Z,22.13
2023-01-29T09:50:41.189Z,21.50
2023-01-29T09:53:30.544Z,21.83
2023-01-29T09:56:14.815Z,19.80
2023-01-29T09:58:43.774Z,20.63
2023-01-29T10:01:36.531Z,22.73
2023-01-29T10:04:27.475Z,18.65
2023-01-29T10:07:00.700Z,19.23
2023-01-29T10:10:07.872Z,18.33
2023-01-29T10:12:53.650Z,16.33
2023-01-29T10:15:30.998Z,13.93
2023-01-29T10:18:07.056Z,10.82
2023-01-29T10:20:59.285Z,7.85
2023-01-29T10:23:35.050Z,14.53
2023-01-29T10:26:02.151Z,9.20
2023-01-29T10:28:34.302Z,16.83
2023-01-29T10:31:07.521Z,20.70
2023-01-29T10:33:49.203Z,19.93
2023-01-29T10:36:48.812Z,8.30
2023-01-29T10:39:18.781Z,19.60
2023-01-29T10:42:05.817Z,13.53
2023-01-29T10:44:32.801Z,9.80
2023-01-29T10:47:37.249Z,8.00
2023-01-29T10:50:32.861Z,11.33
2023-01-29T10:53:11.933Z,7.73
2023-01-29T10:55:57.556Z,9.20
2023-01-29T10:58:31.357Z,12.40
2023-01-29T11:00:59.312Z,11.23
2023-01-29T11:03:34.357Z,12.23
2023-01-29T11:06:25.389Z,12.67
2023-01-29T11:09:20.826Z,13.93
2023-01-29T11:11:55.502Z,14.43
2023-01-29T11:14:45.533Z,19.07
2023-01-29T11:17:17.119Z,18.70
2023-01-29T11:19:48.069Z,17.03
2023-01-29T11:22:20.826Z,14.67
2023-01-29T11:25:10.395Z,17.17
2023-01-29T11:27:44.470Z,18.87
2023-01-29T11:30:37.943Z,19.47
2023-01-29T11:33:26.238Z,20.00
2023-01-29T11:35:53.673Z,21.10
2023-01-29T11:38:28.828Z,20.38
2023-01-29T11:41:07.583Z,19.53
2023-01-29T11:43:34.597Z,20.20
2023-01-29T11:46:07.428Z,20.30
2023-01-29T11:48:48.476Z,21.70
2023-01-29T11:51:27.296Z,23.15
2023-01-29T11:54:04.786Z,24.50
2023-01-29T11:56:41.552Z,23.83
2023-01-29T11:59:29.206Z,21.27
2023-01-29T12:02:03.219Z,20.83
2023-01-29T12:04:31.059Z,25.60
2023-01-29T12:06:58.430Z,25.35
2023-01-29T12:09:28.377Z,23.02
2023-01-29T12:11:56.305Z,22.48
2023-01-29T12:14:34.384Z,24.48
2023-01-29T12:38:59.798Z,25.50
2023-01-29T12:41:36.486Z,22.50
2023-01-29T12:44:22.872Z,21.00
2023-01-29T12:46:56.400Z,22.73
2023-01-29T12:49:27.753Z,21.90
2023-01-29T12:52:07.916Z,19.42
2023-01-29T12:55:01.766Z,15.82
2023-01-29T12:58:01.440Z,18.65
2023-01-29T13:00:38.424Z,16.87
2023-01-29T13:07:57.387Z,15.50
2023-01-29T13:10:32.846Z,14.65
2023-01-29T13:13:19.734Z,17.08
2023-01-29T13:15:48.507Z,15.77
2023-01-29T13:18:44.928Z,14.05
2023-01-29T13:21:16.532Z,12.40
2023-01-29T13:23:47.585Z,14.07
2023-01-29T13:26:19.687Z,16.13
2023-01-29T13:28:48.350Z,14.30
2023-01-29T13:31:25.441Z,20.00
2023-01-29T13:34:04.597Z,15.82
2023-01-29T13:36:37.057Z,16.63
2023-01-29T13:39:07.787Z,20.95
2023-01-29T13:41:42.869Z,21.55
2023-01-29T13:44:28.375Z,22.75
2023-01-29T13:46:58.021Z,20.65
2023-01-29T13:49:35.836Z,19.98
2023-01-29T13:52:17.552Z,18.08
2023-01-29T13:54:59.043Z,18.90
2023-01-29T13:57:56.775Z,20.13
2023-01-29T14:00:31.543Z,18.38
2023-01-29T14:03:01.868Z,17.08
2023-01-29T14:05:31.652Z,20.80
2023-01-29T14:08:14.695Z,15.05
2023-01-29T14:10:44.799Z,14.93
2023-01-29T14:13:21.449Z,16.53
2023-01-29T14:15:57.473Z,16.17
2023-01-29T14:18:27.545Z,15.02
2023-01-29T14:20:59.550Z,18.55
2023-01-29T14:23:54.084Z,18.75
2023-01-29T14:26:46.783Z,18.50
2023-01-29T14:29:33.808Z,19.48
2023-01-29T14:32:20.058Z,16.83
2023-01-29T14:34:55.682Z,15.32
2023-01-29T14:37:33.649Z,13.75
2023-01-29T14:40:23.612Z,14.52
2023-01-29T14:43:07.794Z,14.10
2023-01-29T14:45:38.806Z,12.27
2023-01-29T14:48:11.892Z,13.90
2023-01-29T14:50:49.051Z,13.33
2023-01-29T14:53:31.868Z,13.83
2023-01-29T14:56:02.083Z,13.37
2023-01-29T14:58:43.773Z,14.67
2023-01-29T15:01:32.275Z,13.37
2023-01-29T15:04:31.197Z,13.20
2023-01-29T15:07:10.144Z,12.80
2023-01-29T15:10:24.627Z,12.90
2023-01-29T15:13:10.176Z,13.63
2023-01-29T15:15:49.435Z,15.13
2023-01-29T15:18:23.659Z,14.30
2023-01-29T15:21:02.615Z,15.90
2023-01-29T15:23:35.052Z,14.63
2023-01-29T15:26:04.843Z,15.38
2023-01-29T15:28:36.675Z,15.82
2023-01-29T15:31:13.533Z,15.60
2023-01-29T15:33:45.327Z,15.43
2023-01-29T15:36:21.085Z,17.42
2023-01-29T15:38:49.133Z,16.90
2023-01-29T15:41:21.125Z,17.13
2023-01-29T15:43:51.607Z,16.00
2023-01-29T15:46:21.988Z,15.77
2023-01-29T15:48:50.382Z,16.43
2023-01-29T15:51:25.433Z,15.07
2023-01-29T15:53:55.314Z,13.97
2023-01-29T15:56:37.462Z,16.17
2023-01-29T15:59:09.638Z,18.40
2023-01-29T16:01:37.273Z,19.00
2023-01-29T16:04:04.963Z,19.57
2023-01-29T16:06:38.728Z,21.60
2023-01-29T16:09:07.248Z,23.53
2023-01-29T16:11:37.774Z,20.20
2023-01-29T16:14:06.521Z,21.70
2023-01-29T16:16:33.751Z,24.67
2023-01-29T16:19:01.559Z,25.20
2023-01-29T16:21:36.282Z,25.47
2023-01-29T16:24:12.075Z,23.10
2023-01-29T16:26:45.569Z,25.37
2023-01-29T16:29:22.668Z,20.30
2023-01-29T16:31:53.404Z,19.95
2023-01-29T16:34:25.029Z,13.43
2023-01-29T16:36:54.521Z,15.67
2023-01-29T16:39:25.526Z,16.97
2023-01-29T16:42:13.229Z,17.57
2023-01-29T16:44:41.275Z,12.98
2023-01-29T16:47:26.706Z,15.40
2023-01-29T16:49:57.737Z,18.67
2023-01-29T16:52:28.191Z,15.13
2023-01-29T16:55:21.032Z,18.73
2023-01-29T16:57:55.756Z,14.60
2023-01-29T17:00:28.856Z,15.40
2023-01-29T17:03:07.036Z,14.37
2023-01-29T17:05:37.081Z,15.87
2023-01-29T17:08:06.178Z,18.17
2023-01-29T17:10:33.932Z,15.87
2023-01-29T17:13:07.205Z,17.00
2023-01-29T17:15:46.517Z,15.63
2023-01-29T17:18:24.984Z,17.53
2023-01-29T17:20:55.533Z,15.77
2023-01-29T17:23:23.581Z,15.77
2023-01-29T17:25:54.004Z,16.33
2023-01-29T17:28:22.145Z,17.57
2023-01-29T17:31:05.007Z,16.93
2023-01-29T17:33:33.978Z,14.70
2023-01-29T17:36:01.112Z,17.00
2023-01-29T17:38:28.328Z,20.20
2023-01-29T17:41:09.990Z,25.20
2023-01-29T17:43:37.297Z,29.30
2023-01-29T17:46:04.471Z,33.17
2023-01-29T17:48:32.383Z,32.53
2023-01-29T17:51:03.931Z,32.70
2023-01-29T17:53:45.258Z,29.93
2023-01-29T17:56:28.656Z,32.93
2023-01-29T17:58:55.974Z,34.60
2023-01-29T18:01:22.923Z,33.63
2023-01-29T18:03:50.821Z,34.53
2023-01-29T18:06:28.616Z,31.93
2023-01-29T18:08:58.944Z,33.67
2023-01-29T18:11:26.371Z,33.00
2023-01-29T18:13:53.458Z,34.77
2023-01-29T18:16:22.450Z,34.57
2023-01-29T18:18:51.154Z,34.77
2023-01-29T18:21:18.868Z,33.50
2023-01-29T18:23:46.155Z,33.13
2023-01-29T18:26:17.616Z,31.27
2023-01-29T18:28:45.377Z,34.80
2023-01-29T18:31:14.149Z,34.80
2023-01-29T18:33:41.679Z,37.40
2023-01-29T18:36:11.173Z,41.00
2023-01-29T18:38:39.038Z,41.37
2023-01-29T18:41:10.959Z,41.90
2023-01-29T18:43:42.569Z,36.93
2023-01-29T18:46:10.843Z,38.23
2023-01-29T18:48:37.840Z,36.37
2023-01-29T18:51:05.744Z,35.60
2023-01-29T18:53:33.630Z,36.23
2023-01-29T18:56:05.144Z,33.77
2023-01-29T18:58:36.239Z,31.87
2023-01-29T19:01:09.687Z,30.07
2023-01-29T19:03:39.621Z,30.20
2023-01-29T19:06:10.834Z,30.10
2023-01-29T19:08:38.555Z,30.40
2023-01-29T19:11:09.365Z,30.77
2023-01-29T19:13:40.715Z,30.33
2023-01-29T19:16:10.646Z,32.20
2023-01-29T19:18:39.040Z,29.73
2023-01-29T19:21:11.096Z,29.70
2023-01-29T19:23:38.301Z,31.40
2023-01-29T19:26:06.060Z,32.67
2023-01-29T19:28:33.884Z,31.73
2023-01-29T19:31:01.229Z,31.53
2023-01-29T19:33:28.627Z,33.10
2023-01-29T19:35:57.172Z,34.47
2023-01-29T19:38:24.343Z,31.60
2023-01-29T19:40:52.192Z,31.80
2023-01-29T19:43:19.437Z,31.83
2023-01-29T19:45:53.345Z,30.70
2023-01-29T19:48:22.021Z,32.10
2023-01-29T19:51:08.771Z,32.60
2023-01-29T19:53:38.006Z,34.17
2023-01-29T19:56:07.819Z,32.77
2023-01-29T19:58:35.610Z,37.00
2023-01-29T20:01:06.932Z,34.07
2023-01-29T20:03:34.567Z,36.20
2023-01-29T20:06:05.849Z,36.33
2023-01-29T20:08:33.908Z,35.93
2023-01-29T20:11:01.615Z,36.30
2023-01-29T20:13:29.598Z,34.83
2023-01-29T20:15:56.788Z,40.37
2023-01-29T20:18:24.467Z,38.80
2023-01-29T20:20:53.843Z,36.63
2023-01-29T20:23:36.636Z,37.73
2023-01-29T20:26:15.924Z,37.80
2023-01-29T20:28:45.517Z,35.90
2023-01-29T20:31:12.653Z,38.93
2023-01-29T20:33:40.836Z,45.50
2023-01-29T20:36:10.262Z,42.60
2023-01-29T20:38:38.203Z,32.93
2023-01-29T20:41:12.707Z,34.43
2023-01-29T20:43:40.710Z,31.67
2023-01-29T20:46:07.915Z,35.43
2023-01-29T20:48:38.205Z,35.80
2023-01-29T20:51:10.017Z,36.40
2023-01-29T20:53:37.380Z,36.17
2023-01-29T20:56:05.352Z,30.07
2023-01-29T20:58:32.948Z,29.47
2023-01-29T21:01:00.072Z,26.83
2023-01-29T21:03:27.971Z,29.13
2023-01-29T21:05:59.258Z,30.33
2023-01-29T21:08:31.245Z,34.93
2023-01-29T21:10:58.316Z,34.17
2023-01-29T21:13:25.594Z,37.73
2023-01-29T21:15:54.997Z,40.57
2023-01-29T21:18:22.333Z,39.13
2023-01-29T21:20:50.299Z,35.90
2023-01-29T21:23:18.174Z,35.97
2023-01-29T21:25:45.451Z,36.63
2023-01-29T21:28:15.790Z,36.67
2023-01-29T21:30:43.766Z,37.77
2023-01-29T21:33:11.151Z,33.13
2023-01-29T21:35:38.656Z,34.67
2023-01-29T21:38:06.437Z,32.43
2023-01-29T21:40:33.863Z,34.90
2023-01-29T21:43:15.008Z,30.33
2023-01-29T21:45:43.377Z,31.90
2023-01-29T21:48:11.766Z,29.97
2023-01-29T21:50:39.104Z,31.23
2023-01-29T21:53:06.322Z,30.60
2023-01-29T21:55:33.746Z,30.43
2023-01-29T21:58:00.756Z,30.40
2023-01-29T22:00:28.204Z,28.20
2023-01-29T22:02:55.332Z,28.83
2023-01-29T22:05:22.882Z,28.87
2023-01-29T22:07:50.644Z,30.80
2023-01-29T22:10:19.397Z,29.67
2023-01-29T22:12:48.075Z,30.47
2023-01-29T22:15:15.791Z,28.77
2023-01-29T22:17:43.223Z,31.27
2023-01-29T22:20:14.914Z,29.40
2023-01-29T22:22:42.660Z,31.90
2023-01-29T22:25:11.925Z,31.13
2023-01-29T22:27:39.480Z,29.73
2023-01-29T22:30:07.503Z,31.23
2023-01-29T22:32:35.050Z,28.80
2023-01-29T22:35:05.537Z,27.43
2023-01-29T22:37:32.917Z,30.40
2023-01-29T22:40:00.099Z,29.07
2023-01-29T22:42:28.198Z,30.73
2023-01-29T22:44:55.185Z,30.03
2023-01-29T22:47:22.285Z,29.40
2023-01-29T22:49:51.463Z,28.97
2023-01-29T22:52:22.519Z,28.80
2023-01-29T22:54:51.537Z,29.43
2023-01-29T22:57:19.495Z,29.73
2023-01-29T22:59:46.562Z,29.53
2023-01-29T23:02:13.623Z,29.47
2023-01-29T23:04:40.674Z,29.13
2023-01-29T23:07:07.723Z,28.27
2023-01-29T23:09:34.705Z,29.17
2023-01-29T23:12:04.060Z,29.63
2023-01-29T23:14:31.234Z,28.73
2023-01-29T23:16:58.180Z,28.17
2023-01-29T23:19:25.272Z,26.53
2023-01-29T23:21:52.253Z,28.17
2023-01-29T23:24:19.302Z,28.50
2023-01-29T23:27:04.725Z,29.23
2023-01-29T23:29:31.864Z,28.37
2023-01-29T23:31:58.857Z,28.27
2023-01-29T23:34:25.954Z,29.27
2023-01-29T23:36:52.966Z,29.57
2023-01-29T23:39:20.728Z,28.10
2023-01-29T23:41:47.833Z,29.17
2023-01-29T23:44:17.277Z,30.77
2023-01-29T23:46:44.599Z,31.87
2023-01-29T23:49:12.355Z,30.70
2023-01-29T23:51:39.800Z,28.93
2023-01-29T23:54:09.311Z,29.00
2023-01-29T23:56:36.734Z,30.50
2023-01-29T23:59:03.786Z,29.07
